Time;durP1;ratioP1;P1;durP2;ratioP2;P2;SDS_P1;SDS_P2;PMS_P1;PMS_P2;Temp;Humidity;BMP_temperature;BMP_pressure;BME280_temperature;BME280_humidity;BME280_pressure;Samples;Min_cycle;Max_cycle;Signal;HPM_P1;HPM_P2
2022/11/16 00:02:13;;;;;;;17.50;14.03;;;12.10;99.90;;;;;;5013470;28;20214;-81
2022/11/16 00:04:40;;;;;;;15.13;13.63;;;12.10;99.90;;;;;;5014488;28;20206;-80
2022/11/16 00:07:07;;;;;;;13.70;12.27;;;12.10;99.90;;;;;;5014233;28;20199;-80
2022/11/16 00:09:34;;;;;;;13.73;12.23;;;12.10;99.90;;;;;;5013562;28;20678;-82
2022/11/16 00:12:04;;;;;;;13.17;11.87;;;12.10;99.90;;;;;;5002186;28;20212;-80
2022/11/16 00:14:33;;;;;;;13.33;11.67;;;12.10;99.90;;;;;;4994300;28;20210;-80
2022/11/16 00:17:01;;;;;;;12.30;11.10;;;12.10;99.90;;;;;;4994520;28;20462;-80
2022/11/16 00:19:30;;;;;;;13.33;12.03;;;12.10;99.90;;;;;;5006814;28;20203;-82
2022/11/16 00:21:56;;;;;;;12.40;11.13;;;12.10;99.90;;;;;;5014054;28;20199;-80
2022/11/16 00:24:23;;;;;;;12.23;11.03;;;12.10;99.90;;;;;;5014144;28;20239;-81
2022/11/16 00:26:52;;;;;;;13.67;11.50;;;12.10;99.90;;;;;;5014057;28;20200;-81
2022/11/16 00:29:21;;;;;;;12.30;10.87;;;12.10;99.90;;;;;;5010468;28;20232;-80
2022/11/16 00:31:49;;;;;;;14.73;13.23;;;12.10;99.90;;;;;;4995018;28;20320;-82
2022/11/16 00:34:17;;;;;;;12.80;11.50;;;12.10;99.90;;;;;;4996482;28;20298;-81
2022/11/16 00:36:46;;;;;;;14.20;12.80;;;12.10;99.90;;;;;;5014261;28;20576;-81
2022/11/16 00:39:13;;;;;;;14.30;12.87;;;12.10;99.90;;;;;;5014130;28;20469;-81
2022/11/16 00:41:40;;;;;;;14.10;12.67;;;12.20;99.90;;;;;;5013708;28;20491;-80
2022/11/16 00:44:08;;;;;;;14.63;13.20;;;12.10;99.90;;;;;;5013079;28;20203;-78
2022/11/16 00:46:35;;;;;;;17.57;15.00;;;12.10;99.90;;;;;;5003901;28;20207;-78
2022/11/16 00:49:01;;;;;;;16.83;15.03;;;12.10;99.90;;;;;;4993002;28;20563;-80
2022/11/16 00:51:28;;;;;;;17.50;15.43;;;12.10;99.90;;;;;;4999825;28;20226;-79
2022/11/16 00:53:56;;;;;;;16.23;14.53;;;12.10;99.90;;;;;;5013424;28;20203;-79
2022/11/16 00:56:24;;;;;;;16.77;14.93;;;12.10;99.90;;;;;;5012303;28;20618;-79
2022/11/16 00:58:51;;;;;;;17.67;15.77;;;12.10;99.90;;;;;;5011580;28;20195;-79
2022/11/16 01:01:17;;;;;;;18.00;16.20;;;12.20;99.90;;;;;;5008891;28;20640;-79
2022/11/16 01:03:44;;;;;;;17.50;15.80;;;12.10;99.90;;;;;;4993006;28;20206;-78
2022/11/16 01:06:13;;;;;;;17.17;15.37;;;12.10;99.90;;;;;;4993460;28;20775;-79
2022/11/16 01:08:41;;;;;;;19.07;17.07;;;12.10;99.90;;;;;;4994626;28;20231;-80
2022/11/16 01:14:01;;;;;;;18.10;16.30;;;12.10;99.90;;;;;;4995658;28;20207;-80
2022/11/16 01:16:28;;;;;;;17.87;15.97;;;12.10;99.90;;;;;;5005244;28;20203;-81
2022/11/16 01:18:55;;;;;;;19.00;16.97;;;12.10;99.90;;;;;;5012516;28;20219;-82
2022/11/16 01:21:23;;;;;;;18.47;16.50;;;12.10;99.90;;;;;;5013553;28;20249;-80
2022/11/16 01:23:50;;;;;;;19.50;17.50;;;12.10;99.90;;;;;;5013231;28;20207;-82
2022/11/16 01:26:18;;;;;;;20.20;17.40;;;12.10;99.90;;;;;;5012485;28;20204;-81
2022/11/16 01:28:45;;;;;;;20.20;17.13;;;12.10;99.90;;;;;;5012078;28;20219;-81
2022/11/16 01:31:12;;;;;;;20.73;18.53;;;12.20;99.90;;;;;;5013750;28;20210;-81
2022/11/16 01:33:39;;;;;;;23.30;20.80;;;12.10;99.90;;;;;;5011905;28;20203;-80
2022/11/16 01:36:13;;;;;;;24.10;20.20;;;12.10;99.90;;;;;;5012377;28;20203;-81
2022/11/16 01:38:41;;;;;;;22.33;19.90;;;12.10;99.90;;;;;;5012649;28;20261;-80
2022/11/16 01:41:08;;;;;;;22.40;19.47;;;12.10;99.90;;;;;;5012223;28;20198;-81
2022/11/16 01:43:53;;;;;;;21.23;18.23;;;12.10;99.90;;;;;;5006528;28;20215;-78
2022/11/16 01:46:20;;;;;;;18.40;16.57;;;12.10;99.90;;;;;;4991658;28;20743;-79
2022/11/16 01:48:49;;;;;;;18.03;16.13;;;12.10;99.90;;;;;;5008632;28;20662;-80
2022/11/16 01:51:17;;;;;;;27.00;23.40;;;12.10;99.90;;;;;;4992915;28;20249;-79
2022/11/16 01:53:44;;;;;;;41.43;35.13;;;12.10;99.90;;;;;;4992586;28;20622;-79
2022/11/16 01:56:11;;;;;;;36.40;30.63;;;12.10;99.90;;;;;;4993060;28;20211;-79
2022/11/16 01:58:38;;;;;;;27.07;22.93;;;12.10;99.90;;;;;;4992643;28;20231;-80
2022/11/16 02:01:06;;;;;;;17.90;15.97;;;12.10;99.90;;;;;;4992349;28;20224;-79
2022/11/16 02:03:34;;;;;;;11.40;10.30;;;12.10;99.90;;;;;;4992445;28;20212;-79
2022/11/16 02:06:29;;;;;;;8.40;6.80;;;12.10;99.90;;;;;;4992739;28;20254;-78
2022/11/16 02:12:08;;;;;;;5.23;4.53;;;12.10;99.90;;;;;;5012181;28;20202;-78
2022/11/16 02:14:48;;;;;;;7.43;4.63;;;12.10;99.90;;;;;;5015487;28;20191;-77
2022/11/16 02:17:25;;;;;;;6.07;4.70;;;12.00;99.90;;;;;;5006589;28;20210;-79
2022/11/16 02:20:16;;;;;;;5.33;4.30;;;12.00;99.90;;;;;;4996207;28;20204;-79
2022/11/16 02:22:58;;;;;;;4.50;3.63;;;12.00;99.90;;;;;;4982008;28;20214;-78
2022/11/16 02:25:36;;;;;;;4.97;3.30;;;11.90;99.90;;;;;;5015414;28;20203;-78
2022/11/16 02:28:18;;;;;;;4.50;2.97;;;11.90;99.90;;;;;;5014737;28;20217;-78
2022/11/16 02:30:50;;;;;;;4.87;2.90;;;11.90;99.90;;;;;;5015387;28;20210;-79
2022/11/16 02:33:21;;;;;;;5.13;3.13;;;11.80;99.90;;;;;;5015236;28;20511;-79
2022/11/16 02:35:52;;;;;;;4.73;2.37;;;11.80;99.90;;;;;;5013145;28;20412;-78
2022/11/16 02:38:22;;;;;;;2.30;2.00;;;11.80;99.90;;;;;;5012708;28;20203;-78
2022/11/16 02:40:54;;;;;;;2.60;2.10;;;11.80;99.90;;;;;;5015372;28;20221;-79
2022/11/16 02:43:25;;;;;;;3.10;2.07;;;11.80;99.90;;;;;;5014687;28;20202;-79
2022/11/16 02:45:58;;;;;;;4.70;2.33;;;11.70;99.90;;;;;;4996426;28;20204;-79
2022/11/16 02:48:30;;;;;;;2.83;1.90;;;11.70;99.90;;;;;;4995781;28;20215;-78
2022/11/16 02:50:58;;;;;;;3.10;1.93;;;11.70;99.90;;;;;;4994851;28;20836;-79
2022/11/16 02:53:25;;;;;;;3.67;1.90;;;11.70;99.90;;;;;;5005544;28;20558;-79
2022/11/16 02:55:52;;;;;;;3.30;2.00;;;11.70;99.90;;;;;;5015091;28;20204;-79
2022/11/16 02:58:21;;;;;;;2.90;1.93;;;11.70;99.90;;;;;;5014151;28;20202;-81
2022/11/16 03:00:53;;;;;;;6.60;2.20;;;11.70;99.90;;;;;;4994719;28;20239;-80
2022/11/16 03:03:28;;;;;;;2.53;1.57;;;11.70;99.90;;;;;;5004776;28;20213;-80
2022/11/16 03:05:59;;;;;;;4.77;2.13;;;11.60;99.90;;;;;;5016057;28;20540;-81
2022/11/16 03:08:30;;;;;;;4.43;1.90;;;11.70;99.90;;;;;;5015747;28;20223;-83
2022/11/16 03:13:47;;;;;;;3.63;2.00;;;11.60;99.90;;;;;;5003612;28;20226;-81
2022/11/16 03:16:18;;;;;;;3.40;1.77;;;11.60;99.90;;;;;;4996599;28;20200;-81
2022/11/16 03:18:50;;;;;;;3.33;1.60;;;11.60;99.90;;;;;;5001660;28;20199;-82
2022/11/16 03:21:24;;;;;;;2.37;1.40;;;11.60;99.90;;;;;;5014976;28;20478;-80
2022/11/16 03:23:52;;;;;;;2.23;1.40;;;11.60;99.90;;;;;;5015268;28;20212;-81
2022/11/16 03:26:23;;;;;;;1.83;1.43;;;11.60;99.90;;;;;;5015151;28;20278;-80
2022/11/16 03:28:57;;;;;;;3.03;1.83;;;11.60;99.90;;;;;;5015453;28;20227;-81
2022/11/16 03:31:29;;;;;;;2.47;1.70;;;11.50;99.90;;;;;;5014925;28;20266;-78
2022/11/16 03:34:01;;;;;;;3.37;1.87;;;11.60;99.90;;;;;;5013555;28;20559;-79
2022/11/16 03:36:31;;;;;;;3.97;1.80;;;11.50;99.90;;;;;;5014803;28;20274;-79
2022/11/16 03:39:01;;;;;;;3.63;2.47;;;11.50;99.90;;;;;;4998560;28;20192;-80
2022/11/16 03:41:30;;;;;;;4.83;2.97;;;11.50;99.90;;;;;;4995435;28;20200;-81
2022/11/16 03:43:59;;;;;;;3.63;3.33;;;11.50;99.90;;;;;;4995563;28;20230;-80
2022/11/16 03:46:26;;;;;;;4.13;3.57;;;11.50;99.90;;;;;;4995001;28;20208;-79
2022/11/16 03:48:58;;;;;;;4.03;3.47;;;11.50;99.90;;;;;;4994694;28;20290;-79
2022/11/16 03:51:25;;;;;;;5.97;3.87;;;11.50;99.90;;;;;;5007200;28;20231;-79
2022/11/16 03:53:52;;;;;;;4.90;4.40;;;11.50;99.90;;;;;;5013566;28;20211;-79
2022/11/16 03:56:20;;;;;;;4.50;4.00;;;11.50;99.90;;;;;;5013327;28;20525;-79
2022/11/16 03:58:47;;;;;;;3.83;3.50;;;11.40;99.90;;;;;;5013924;28;20200;-79
2022/11/16 04:01:13;;;;;;;4.00;3.70;;;11.40;99.90;;;;;;5012548;28;20227;-78
2022/11/16 04:03:40;;;;;;;4.53;4.13;;;11.40;99.90;;;;;;5014142;28;20214;-79
2022/11/16 04:25:32;;;;;;;10.30;9.27;;;11.30;99.90;;;;;;5013661;28;20183;-80
2022/11/16 04:39:06;;;;;;;10.27;8.43;;;11.30;99.90;;;;;;4993622;28;20270;-79
2022/11/16 04:44:18;;;;;;;8.33;7.53;;;11.20;99.90;;;;;;4993570;28;20191;-79
2022/11/16 04:49:30;;;;;;;13.70;8.77;;;11.20;99.90;;;;;;5003319;28;20214;-79
2022/11/16 04:51:57;;;;;;;9.00;7.50;;;11.20;99.90;;;;;;5012905;28;20229;-80
2022/11/16 04:54:25;;;;;;;10.23;8.57;;;11.20;99.90;;;;;;5002790;28;20204;-78
2022/11/16 04:56:52;;;;;;;9.77;8.73;;;11.20;99.90;;;;;;4993178;28;20204;-79
2022/11/16 04:59:19;;;;;;;9.47;8.57;;;11.10;99.90;;;;;;4992787;28;20207;-80
2022/11/16 05:04:30;;;;;;;10.77;9.67;;;11.20;99.90;;;;;;5012361;28;20302;-78
2022/11/16 05:06:57;;;;;;;15.60;10.77;;;11.10;99.90;;;;;;5013172;28;20199;-81
2022/11/16 05:09:25;;;;;;;11.60;10.40;;;11.10;99.90;;;;;;5001485;28;20470;-80
2022/11/16 05:11:52;;;;;;;11.77;10.40;;;11.10;99.90;;;;;;4993099;28;20288;-81
2022/11/16 05:14:19;;;;;;;11.90;9.10;;;11.10;99.90;;;;;;4993919;28;20550;-81
2022/11/16 05:16:46;;;;;;;12.53;10.97;;;11.10;99.90;;;;;;5006054;28;20627;-80
2022/11/16 05:21:57;;;;;;;14.90;10.83;;;11.00;99.90;;;;;;4999042;28;20283;-79
2022/11/16 05:24:34;;;;;;;11.93;9.73;;;11.00;99.90;;;;;;4992475;28;20207;-79
2022/11/16 05:27:02;;;;;;;14.13;9.77;;;11.00;99.90;;;;;;4994328;28;20298;-80
2022/11/16 05:29:29;;;;;;;10.60;9.47;;;11.00;99.90;;;;;;4993470;28;20223;-81
2022/11/16 05:31:57;;;;;;;14.97;11.73;;;11.00;99.90;;;;;;4993201;28;20230;-80
2022/11/16 05:34:24;;;;;;;15.13;10.43;;;10.90;99.90;;;;;;4994447;28;20214;-81
2022/11/16 05:36:51;;;;;;;13.83;9.83;;;10.90;99.90;;;;;;4993580;28;20208;-81
2022/11/16 05:39:18;;;;;;;15.50;10.37;;;10.90;99.90;;;;;;4992299;28;20291;-82
2022/11/16 05:41:46;;;;;;;12.63;9.73;;;10.90;99.90;;;;;;5008532;28;20218;-80
2022/11/16 05:44:14;;;;;;;13.70;9.57;;;10.90;99.90;;;;;;5012296;28;20201;-80
2022/11/16 05:46:41;;;;;;;10.17;9.17;;;10.90;99.90;;;;;;5002865;28;20210;-81
2022/11/16 05:49:09;;;;;;;17.20;10.97;;;10.90;99.90;;;;;;4993241;28;20220;-80
2022/11/16 05:51:35;;;;;;;12.63;9.37;;;10.90;99.90;;;;;;4993113;28;20237;-80
2022/11/16 05:54:04;;;;;;;14.07;10.53;;;10.90;99.90;;;;;;5006896;28;20544;-81
2022/11/16 05:56:31;;;;;;;11.63;9.70;;;10.90;99.90;;;;;;5010901;28;20662;-80
2022/11/16 05:58:59;;;;;;;14.27;10.27;;;10.80;99.90;;;;;;5012321;28;20213;-79
2022/11/16 06:01:26;;;;;;;13.10;9.17;;;10.90;99.90;;;;;;5011608;28;20747;-81
2022/11/16 06:03:53;;;;;;;14.37;10.17;;;10.80;99.90;;;;;;5012662;28;20355;-80
2022/11/16 06:06:20;;;;;;;10.17;9.07;;;10.80;99.90;;;;;;5009319;28;20280;-80
2022/11/16 06:08:47;;;;;;;11.27;9.87;;;10.80;99.90;;;;;;4992383;28;20200;-80
2022/11/16 06:11:14;;;;;;;15.27;9.33;;;10.80;99.90;;;;;;4998924;28;20512;-80
2022/11/16 06:13:41;;;;;;;12.97;10.03;;;10.80;99.90;;;;;;5012487;28;20199;-81
2022/11/16 06:16:11;;;;;;;12.40;9.10;;;10.70;99.90;;;;;;5012135;28;20211;-81
2022/11/16 06:18:39;;;;;;;12.50;9.00;;;10.70;99.90;;;;;;5012140;28;20591;-81
2022/11/16 06:21:07;;;;;;;12.30;9.83;;;10.70;99.90;;;;;;5001498;28;20291;-80
2022/11/16 06:23:34;;;;;;;13.97;10.20;;;10.70;99.90;;;;;;5004133;28;20238;-81
2022/11/16 06:26:01;;;;;;;11.97;8.70;;;10.70;99.90;;;;;;5012378;28;20215;-80
2022/11/16 06:28:28;;;;;;;13.93;9.27;;;10.70;99.90;;;;;;5012407;28;20207;-81
2022/11/16 06:30:56;;;;;;;10.77;9.00;;;10.70;99.90;;;;;;5012638;28;20224;-82
2022/11/16 06:33:24;;;;;;;17.77;9.70;;;10.70;99.90;;;;;;5012715;28;20613;-81
2022/11/16 06:35:51;;;;;;;11.53;8.43;;;10.70;99.90;;;;;;5011641;28;20211;-80
2022/11/16 06:38:19;;;;;;;11.93;8.37;;;10.60;99.90;;;;;;5012772;28;20199;-81
2022/11/16 06:40:46;;;;;;;13.63;9.23;;;10.60;99.90;;;;;;5012868;28;20204;-81
2022/11/16 06:43:13;;;;;;;15.07;9.30;;;10.60;99.90;;;;;;5012183;28;20218;-81
2022/11/16 06:45:39;;;;;;;15.90;8.67;;;10.60;99.90;;;;;;5012786;28;20630;-82
2022/11/16 06:48:06;;;;;;;11.83;8.03;;;10.60;99.90;;;;;;5012795;28;20242;-82
2022/11/16 06:50:35;;;;;;;12.00;8.93;;;10.60;99.90;;;;;;5001265;28;20230;-83
2022/11/16 06:53:01;;;;;;;12.33;8.03;;;10.50;99.90;;;;;;5012892;28;20196;-82
2022/11/16 06:55:29;;;;;;;11.63;8.53;;;10.50;99.90;;;;;;5012474;28;20195;-82
2022/11/16 06:57:56;;;;;;;12.03;8.23;;;10.50;99.90;;;;;;5002183;28;20222;-82
2022/11/16 07:00:23;;;;;;;11.70;7.63;;;10.50;99.90;;;;;;4996141;28;20521;-81
2022/11/16 07:02:50;;;;;;;12.23;7.53;;;10.40;99.90;;;;;;5000092;28;20202;-81
2022/11/16 07:05:17;;;;;;;14.53;9.17;;;10.40;99.90;;;;;;5015358;28;20614;-82
2022/11/16 07:07:45;;;;;;;11.27;8.63;;;10.40;99.90;;;;;;5015652;28;20203;-81
2022/11/16 07:10:12;;;;;;;13.30;9.00;;;10.40;99.90;;;;;;5015499;28;20310;-81
2022/11/16 07:12:39;;;;;;;12.73;8.57;;;10.40;99.90;;;;;;5015960;28;20204;-82
2022/11/16 07:15:07;;;;;;;14.07;8.20;;;10.30;99.90;;;;;;5014935;28;20848;-81
2022/11/16 07:17:34;;;;;;;15.07;8.93;;;10.30;99.90;;;;;;5015342;28;20191;-80
2022/11/16 07:20:01;;;;;;;11.73;7.30;;;10.30;99.90;;;;;;5016244;28;20191;-82
2022/11/16 07:22:27;;;;;;;12.57;7.77;;;10.30;99.90;;;;;;5015509;28;20603;-82
2022/11/16 07:24:56;;;;;;;11.03;6.67;;;10.20;99.90;;;;;;4999473;28;20214;-82
2022/11/16 07:27:22;;;;;;;11.20;6.73;;;10.20;99.90;;;;;;4996250;28;20200;-82
2022/11/16 07:29:49;;;;;;;11.20;7.40;;;10.20;99.90;;;;;;4997735;28;20231;-82
2022/11/16 07:32:16;;;;;;;13.27;7.17;;;10.20;99.90;;;;;;4995859;28;20204;-82
2022/11/16 07:34:43;;;;;;;13.70;7.83;;;10.10;99.90;;;;;;5009796;28;20205;-82
2022/11/16 07:37:10;;;;;;;9.93;7.00;;;10.10;99.90;;;;;;5015782;28;20207;-82
2022/11/16 07:39:36;;;;;;;12.80;7.80;;;10.10;99.90;;;;;;5013625;28;20202;-83
2022/11/16 07:42:10;;;;;;;12.13;7.40;;;10.10;99.90;;;;;;5015525;28;20211;-80
2022/11/16 07:44:37;;;;;;;15.63;7.60;;;10.10;99.90;;;;;;5031083;22;20238;-82
2022/11/16 07:47:04;;;;;;;19.03;7.53;;;10.00;99.90;;;;;;5055640;28;20198;-83
2022/11/16 07:49:31;;;;;;;12.47;7.60;;;10.00;99.90;;;;;;5054950;28;20229;-82
2022/11/16 07:51:57;;;;;;;15.63;7.43;;;10.00;99.90;;;;;;5048810;28;20222;-81
2022/11/16 07:54:24;;;;;;;18.53;7.37;;;10.00;99.90;;;;;;5035252;28;20203;-82
2022/11/16 07:56:51;;;;;;;10.83;7.27;;;10.00;99.90;;;;;;5040696;28;20213;-82
2022/11/16 07:59:19;;;;;;;14.37;7.33;;;9.90;99.90;;;;;;5054810;28;20202;-82
2022/11/16 08:01:47;;;;;;;14.47;7.23;;;9.90;99.90;;;;;;5042176;28;20491;-83
2022/11/16 08:04:16;;;;;;;13.83;7.47;;;9.90;99.90;;;;;;5035327;28;20209;-82
2022/11/16 08:06:45;;;;;;;13.03;6.73;;;9.90;99.90;;;;;;5034772;28;20217;-83
2022/11/16 08:09:12;;;;;;;13.43;7.23;;;9.90;99.90;;;;;;5044851;28;20202;-81
2022/11/16 08:11:40;;;;;;;17.03;6.17;;;9.90;99.90;;;;;;5054899;28;20505;-82
2022/11/16 08:14:07;;;;;;;9.50;5.50;;;9.90;99.90;;;;;;5055379;28;20198;-83
2022/11/16 08:16:35;;;;;;;12.30;5.50;;;9.90;99.90;;;;;;5035882;28;20203;-83
2022/11/16 08:19:04;;;;;;;12.90;5.13;;;9.90;99.90;;;;;;5039782;28;20232;-84
2022/11/16 08:21:33;;;;;;;13.07;4.97;;;9.90;99.90;;;;;;5047982;28;20298;-81
2022/11/16 08:24:00;;;;;;;7.40;4.13;;;9.80;99.90;;;;;;5046147;28;20205;-83
2022/11/16 08:26:29;;;;;;;11.73;4.70;;;9.80;99.90;;;;;;5037899;28;20248;-83
2022/11/16 08:28:56;;;;;;;8.73;4.60;;;9.80;99.90;;;;;;5036966;28;20210;-83
2022/11/16 08:31:25;;;;;;;11.37;4.77;;;9.80;99.90;;;;;;5038152;28;20256;-82
2022/11/16 08:33:54;;;;;;;10.63;3.80;;;9.80;99.90;;;;;;5043234;28;20285;-82
2022/11/16 08:36:22;;;;;;;11.23;4.17;;;9.90;99.90;;;;;;5051279;28;20236;-83
2022/11/16 08:38:50;;;;;;;10.83;3.93;;;9.90;99.90;;;;;;5049683;28;20199;-83
2022/11/16 08:41:18;;;;;;;8.53;3.97;;;9.90;99.90;;;;;;5034811;28;20195;-83
2022/11/16 08:43:46;;;;;;;13.30;4.23;;;9.90;99.90;;;;;;5035146;28;20205;-84
2022/11/16 08:46:14;;;;;;;10.43;4.00;;;9.90;99.90;;;;;;5033922;28;20634;-83
2022/11/16 08:48:41;;;;;;;7.37;4.40;;;9.90;99.90;;;;;;5035070;28;20213;-83
2022/11/16 08:51:11;;;;;;;14.43;4.43;;;9.90;99.90;;;;;;5034600;28;20228;-83
2022/11/16 08:53:37;;;;;;;13.87;4.87;;;9.90;99.90;;;;;;5034555;28;20225;-83
2022/11/16 08:56:07;;;;;;;11.27;4.60;;;9.90;99.90;;;;;;5034783;28;20217;-84
2022/11/16 08:58:34;;;;;;;13.20;4.93;;;9.90;99.90;;;;;;5038051;28;20240;-83
2022/11/16 09:01:08;;;;;;;11.13;3.80;;;9.90;99.90;;;;;;5039728;28;20233;-83
2022/11/16 09:03:36;;;;;;;10.63;4.47;;;10.00;99.90;;;;;;5034519;28;20221;-84
2022/11/16 09:06:03;;;;;;;12.63;3.87;;;10.00;99.90;;;;;;5034534;28;20286;-83
2022/11/16 09:08:32;;;;;;;11.43;3.73;;;10.00;99.90;;;;;;5034292;28;20202;-82
2022/11/16 09:10:59;;;;;;;13.77;4.83;;;10.00;99.90;;;;;;5034345;28;20538;-83
2022/11/16 09:13:26;;;;;;;15.80;4.20;;;10.00;99.90;;;;;;5034251;28;20307;-83
2022/11/16 09:15:57;;;;;;;13.17;4.53;;;10.00;99.90;;;;;;5045887;28;20206;-83
2022/11/16 09:18:24;;;;;;;10.77;4.97;;;10.00;99.90;;;;;;5053372;28;20191;-81
2022/11/16 09:20:51;;;;;;;13.00;4.00;;;10.10;99.90;;;;;;5036851;28;20201;-83
2022/11/16 09:23:18;;;;;;;9.50;4.00;;;10.10;99.90;;;;;;5034019;28;20202;-80
2022/11/16 09:25:47;;;;;;;9.43;3.63;;;10.10;99.90;;;;;;5034005;28;20229;-83
2022/11/16 09:28:15;;;;;;;13.27;4.50;;;10.10;99.90;;;;;;5033837;28;20202;-82
2022/11/16 09:30:42;;;;;;;8.53;4.00;;;10.10;99.90;;;;;;5033669;28;20284;-81
2022/11/16 09:33:10;;;;;;;8.57;3.57;;;10.20;99.90;;;;;;5033150;28;20848;-82
2022/11/16 09:35:37;;;;;;;9.57;3.83;;;10.10;99.90;;;;;;5032813;28;20560;-83
2022/11/16 09:38:04;;;;;;;10.47;4.63;;;10.20;99.90;;;;;;5033136;28;20285;-82
2022/11/16 09:40:34;;;;;;;12.17;4.70;;;10.20;99.90;;;;;;5033740;28;20281;-83
2022/11/16 09:43:10;;;;;;;11.07;4.97;;;10.20;99.90;;;;;;5033439;28;20626;-83
2022/11/16 09:45:42;;;;;;;16.30;4.87;;;10.20;99.90;;;;;;5032614;28;20238;-83
2022/11/16 09:48:13;;;;;;;9.10;5.17;;;10.20;99.90;;;;;;5033623;28;20187;-82
2022/11/16 09:50:44;;;;;;;13.03;4.97;;;10.30;99.90;;;;;;5044638;28;20232;-82
2022/11/16 09:53:23;;;;;;;10.33;5.30;;;10.30;99.90;;;;;;5044614;28;20207;-82
2022/11/16 09:55:52;;;;;;;12.23;5.70;;;10.30;99.90;;;;;;5032624;28;20514;-81
2022/11/16 09:58:26;;;;;;;11.80;6.10;;;10.30;99.90;;;;;;5031720;28;20213;-80
2022/11/16 10:00:59;;;;;;;12.53;5.30;;;10.30;99.90;;;;;;5032424;28;20305;-80
2022/11/16 10:03:28;;;;;;;10.97;5.57;;;10.40;99.90;;;;;;5032220;28;20187;-80
2022/11/16 10:06:01;;;;;;;13.63;5.40;;;10.40;99.90;;;;;;5031542;28;20286;-79
2022/11/16 10:08:43;;;;;;;14.57;5.70;;;10.40;99.90;;;;;;5031482;28;20500;-79
2022/11/16 10:11:41;;;;;;;8.37;4.80;;;10.50;99.90;;;;;;5032252;28;20292;-80
2022/11/16 10:14:24;;;;;;;14.80;5.60;;;10.50;99.90;;;;;;5032002;28;20199;-79
2022/11/16 10:17:00;;;;;;;10.00;5.37;;;10.60;99.90;;;;;;5032038;28;20282;-79
2022/11/16 10:19:35;;;;;;;14.07;5.30;;;10.60;99.90;;;;;;5031761;28;20205;-79
2022/11/16 10:22:13;;;;;;;14.57;4.90;;;10.70;99.90;;;;;;5031523;28;20201;-79
2022/11/16 10:24:53;;;;;;;15.47;5.60;;;10.60;99.90;;;;;;5031659;28;20206;-79
2022/11/16 10:27:33;;;;;;;16.10;5.50;;;10.70;99.90;;;;;;5029267;28;20297;-80
2022/11/16 10:30:10;;;;;;;14.90;5.80;;;10.80;99.90;;;;;;5030042;28;20274;-79
2022/11/16 10:32:44;;;;;;;15.13;5.97;;;10.80;99.90;;;;;;5034802;28;20210;-80
2022/11/16 10:35:18;;;;;;;9.00;5.23;;;10.90;99.90;;;;;;5034736;28;20200;-79
2022/11/16 10:37:48;;;;;;;13.10;6.57;;;10.90;99.90;;;;;;5035244;28;20203;-78
2022/11/16 10:40:19;;;;;;;12.60;6.77;;;10.90;99.90;;;;;;5035165;28;20198;-79
2022/11/16 10:42:57;;;;;;;12.83;6.53;;;11.00;99.90;;;;;;5034880;28;20290;-79
2022/11/16 10:45:31;;;;;;;8.13;7.00;;;10.90;99.90;;;;;;5034908;28;20222;-79
2022/11/16 10:48:03;;;;;;;12.57;7.50;;;11.00;99.90;;;;;;5034376;28;20525;-80
2022/11/16 10:50:37;;;;;;;14.10;7.73;;;11.10;99.90;;;;;;5034903;28;20611;-80
2022/11/16 10:53:04;;;;;;;13.97;7.10;;;11.10;99.90;;;;;;5034811;28;20221;-79
2022/11/16 10:55:31;;;;;;;14.13;8.00;;;11.20;99.90;;;;;;5034637;28;20213;-79
2022/11/16 10:57:59;;;;;;;16.27;8.20;;;11.20;99.90;;;;;;5034275;28;20220;-80
2022/11/16 11:00:41;;;;;;;10.70;8.13;;;11.20;99.90;;;;;;5034889;28;20210;-81
2022/11/16 11:03:09;;;;;;;23.53;8.87;;;11.20;99.90;;;;;;5034428;28;20207;-79
2022/11/16 11:05:37;;;;;;;12.73;8.13;;;11.20;99.90;;;;;;5034305;28;20276;-81
2022/11/16 11:08:06;;;;;;;15.70;8.23;;;11.20;99.90;;;;;;5034265;28;20215;-80
2022/11/16 11:10:35;;;;;;;14.03;8.27;;;11.30;99.90;;;;;;5033937;28;20623;-80
2022/11/16 11:13:05;;;;;;;12.37;8.07;;;11.30;99.90;;;;;;5038865;28;20212;-79
2022/11/16 11:15:32;;;;;;;16.10;9.23;;;11.30;99.90;;;;;;5054338;28;20339;-80
2022/11/16 11:18:17;;;;;;;15.30;8.00;;;11.30;99.90;;;;;;5053697;28;20206;-82
2022/11/16 11:20:47;;;;;;;11.70;8.20;;;11.40;99.90;;;;;;5053521;28;20194;-81
2022/11/16 11:23:17;;;;;;;20.20;8.43;;;11.40;99.90;;;;;;5054193;28;20485;-80
2022/11/16 11:25:56;;;;;;;13.47;7.03;;;11.40;99.90;;;;;;5033937;28;20206;-80
2022/11/16 11:28:26;;;;;;;15.80;7.57;;;11.50;99.90;;;;;;5035026;28;20210;-79
2022/11/16 11:31:00;;;;;;;15.73;6.97;;;11.50;99.90;;;;;;5033885;28;20317;-80
2022/11/16 11:33:32;;;;;;;12.73;7.27;;;11.50;99.90;;;;;;5044375;28;20198;-79
2022/11/16 11:36:04;;;;;;;13.03;6.63;;;11.50;99.90;;;;;;5054596;28;20255;-78
2022/11/16 11:38:32;;;;;;;13.77;7.00;;;11.60;99.90;;;;;;5046982;28;20207;-80
2022/11/16 11:41:00;;;;;;;9.67;5.40;;;11.50;99.90;;;;;;5034923;28;20198;-79
2022/11/16 11:43:29;;;;;;;12.80;6.33;;;11.50;99.90;;;;;;5034322;28;20293;-80
2022/11/16 11:46:03;;;;;;;15.13;5.57;;;11.50;99.90;;;;;;5033793;28;20246;-78
2022/11/16 11:48:42;;;;;;;14.00;4.73;;;11.50;99.90;;;;;;5034187;28;20198;-78
2022/11/16 11:51:15;;;;;;;14.57;5.90;;;11.50;99.90;;;;;;5033321;28;20233;-78
2022/11/16 11:53:48;;;;;;;9.67;4.93;;;11.60;99.90;;;;;;5034314;28;20213;-80
2022/11/16 11:56:15;;;;;;;12.13;4.87;;;11.60;99.90;;;;;;5033520;28;20207;-79
2022/11/16 11:58:43;;;;;;;18.07;5.00;;;11.60;99.90;;;;;;5032608;28;20203;-79
2022/11/16 12:01:32;;;;;;;7.50;4.30;;;11.70;99.90;;;;;;5033409;28;20256;-79
2022/11/16 12:04:55;;;;;;;9.83;4.80;;;11.70;99.90;;;;;;5032687;28;20846;-77
2022/11/16 12:07:35;;;;;;;14.07;4.63;;;11.80;99.90;;;;;;4952350;29;20558;-78
2022/11/16 12:10:12;;;;;;;10.13;4.37;;;11.90;99.90;;;;;;5047242;28;20194;-80
2022/11/16 12:12:50;;;;;;;9.43;3.47;;;11.80;99.90;;;;;;5052467;28;20216;-81
2022/11/16 12:15:31;;;;;;;11.17;5.30;;;11.80;99.90;;;;;;5052822;28;20202;-79
2022/11/16 12:18:08;;;;;;;12.80;3.87;;;11.70;99.90;;;;;;5034630;28;20218;-79
2022/11/16 12:20:46;;;;;;;7.37;3.23;;;11.70;99.90;;;;;;5030585;28;20214;-79
2022/11/16 12:23:35;;;;;;;10.13;3.97;;;11.70;99.90;;;;;;5032283;28;20198;-80
2022/11/16 12:26:11;;;;;;;9.83;3.63;;;11.70;99.90;;;;;;5033647;28;20213;-82
2022/11/16 12:28:50;;;;;;;17.83;3.70;;;11.70;99.90;;;;;;5049052;28;20268;-80
2022/11/16 12:31:45;;;;;;;8.77;3.40;;;11.70;99.90;;;;;;5052299;28;20231;-81
2022/11/16 12:34:19;;;;;;;9.37;3.70;;;11.80;99.90;;;;;;5042414;28;20303;-78
2022/11/16 12:36:55;;;;;;;7.87;3.37;;;11.80;99.90;;;;;;5032803;28;20201;-77
2022/11/16 12:39:24;;;;;;;8.87;3.43;;;11.90;99.90;;;;;;5032029;28;20680;-78
2022/11/16 12:42:28;;;;;;;9.63;3.47;;;11.90;99.90;;;;;;5032334;28;20194;-77
2022/11/16 12:45:13;;;;;;;9.03;3.17;;;11.80;99.90;;;;;;5032759;28;20240;-79
2022/11/16 12:47:54;;;;;;;9.50;3.63;;;11.80;99.90;;;;;;5032130;28;20210;-77
2022/11/16 12:50:36;;;;;;;10.83;3.17;;;11.90;99.90;;;;;;5053039;28;20230;-77
2022/11/16 12:53:27;;;;;;;12.63;3.10;;;11.80;99.90;;;;;;5051204;28;20501;-78
2022/11/16 12:56:02;;;;;;;8.90;2.67;;;11.90;99.90;;;;;;5052299;28;20197;-78
2022/11/16 12:58:41;;;;;;;5.97;2.57;;;11.90;99.90;;;;;;5052159;28;20209;-79
2022/11/16 13:01:17;;;;;;;7.20;2.63;;;11.90;99.90;;;;;;5038607;28;20277;-79
2022/11/16 13:03:49;;;;;;;9.53;3.80;;;11.90;99.90;;;;;;5032676;28;20190;-79
2022/11/16 13:06:19;;;;;;;7.53;2.57;;;11.90;99.90;;;;;;5032804;28;20201;-78
2022/11/16 13:09:06;;;;;;;10.97;3.80;;;11.90;99.90;;;;;;5031361;28;20538;-78
2022/11/16 13:11:38;;;;;;;7.20;2.80;;;12.00;99.90;;;;;;5031969;28;20229;-78
2022/11/16 13:14:10;;;;;;;8.23;2.37;;;12.00;99.90;;;;;;5044865;28;20602;-79
2022/11/16 13:16:37;;;;;;;7.53;2.37;;;11.90;99.90;;;;;;5051482;28;20251;-79
2022/11/16 13:19:09;;;;;;;8.50;2.73;;;11.90;99.90;;;;;;5052518;28;20541;-78
2022/11/16 13:21:46;;;;;;;5.10;2.47;;;12.00;99.90;;;;;;5032054;28;20198;-78
2022/11/16 13:24:27;;;;;;;9.93;2.87;;;11.90;99.90;;;;;;5031635;28;20228;-79
2022/11/16 13:27:28;;;;;;;14.53;5.07;;;11.80;99.90;;;;;;5032085;28;20317;-79
2022/11/16 13:30:01;;;;;;;12.20;3.53;;;11.80;99.90;;;;;;5031944;28;20248;-80
2022/11/16 13:32:41;;;;;;;8.00;3.00;;;11.90;99.90;;;;;;5032061;28;20222;-79
2022/11/16 13:35:14;;;;;;;11.23;3.63;;;11.90;99.90;;;;;;5032300;28;20195;-78
2022/11/16 13:37:43;;;;;;;9.37;2.80;;;11.90;99.90;;;;;;5031431;28;20198;-78
2022/11/16 13:40:27;;;;;;;6.67;3.33;;;11.80;99.90;;;;;;5032050;28;20371;-78
2022/11/16 13:43:21;;;;;;;7.67;3.20;;;11.90;99.90;;;;;;5032176;28;20218;-79
2022/11/16 13:45:58;;;;;;;10.47;2.90;;;11.90;99.90;;;;;;4996836;28;20230;-78
2022/11/16 13:48:29;;;;;;;10.57;3.23;;;11.80;99.90;;;;;;5032014;28;20285;-79